Portada
METAR-TAF:

METAR-TAF

Aeroports :

Aeroport de Lugano

Lugano, Suïssa

latitud: 46-00N, longitud: 008-58E, altitud: 273 m

Observació

L'informe es va fer fa 23 minuts, a les 14:50 UTC
Vent 7 kt del Sud/Sud-Oest
Temperatura 18°C
Humitat 73%
Pressió 1014 hPa
Visibilitat 10 km o més
Escasses núvols a una alçada de 3500 ft

METAR: LSZA 241450Z 20007KT 9999 FEW035 18/13 Q1014

Hora: 17:13 (15:13 UTC)

Pronòstic

L'informe es va fer fa 48 minuts, a les 14:25 UTC
Pronòstic vàlid del 24 a les 15 UTC al 24 a les 24 UTC
Vent 6 kt del Sud
Visibilitat 10 km o més
sense núvols per sota de 1500 mi sense presència de cumulonimbus.
Evolucionant progressivament
l' 24 a les 20 UTC al 24 a les 23 UTC
Visibilitat: 3000 m
Boira superficial

TAF: LSZA 241425Z 2415/2424 19006KT CAVOK BECMG 2420/2423 3000 MIFG NSC

Observacions i pronòstics meteorològics de més de 4000 aeroports (METAR i TAF).

Les estacions disponibles són els punts grocs i vermells al mapa.

Posi el ratolí al punt desitjat per veure el nom de l'estació.

Feu clic per veure les observacions i els pronòstics meteorològics.

Per canviar el mapa: feu clic els botons verds amb una creu de color negre per apropar; al botó verd amb un guió per allunyar la imatge; o en les fletxes verdes per a mapes adjacents.


METAR-TAF: